Time;durP1;ratioP1;P1;durP2;ratioP2;P2;SDS_P1;SDS_P2;PMS_P1;PMS_P2;Temp;Humidity;BMP_temperature;BMP_pressure;BME280_temperature;BME280_humidity;BME280_pressure;Samples;Min_cycle;Max_cycle;Signal;HPM_P1;HPM_P2
2022/11/25 00:02:05;;;;;;;10.50;6.40;;;;;;;4.17;100.00;96637.16;5012799;28;20190;-68
2022/11/25 00:04:35;;;;;;;9.80;7.20;;;;;;;4.13;100.00;96638.53;5011934;28;20205;-68
2022/11/25 00:07:01;;;;;;;10.00;7.03;;;;;;;4.00;100.00;96639.25;4991863;28;20199;-68
2022/11/25 00:09:26;;;;;;;13.40;6.97;;;;;;;4.07;100.00;96631.50;5012132;28;20601;-67
2022/11/25 00:11:52;;;;;;;11.87;6.93;;;;;;;4.03;100.00;96636.25;5012632;28;20195;-68
2022/11/25 00:14:17;;;;;;;9.33;6.10;;;;;;;3.99;100.00;96635.06;5012521;28;20248;-68
2022/11/25 00:16:43;;;;;;;7.23;6.53;;;;;;;4.08;100.00;96635.69;5011929;28;20231;-67
2022/11/25 00:19:08;;;;;;;11.47;6.70;;;;;;;3.95;100.00;96635.63;5012232;28;20194;-68
2022/11/25 00:21:34;;;;;;;8.77;6.13;;;;;;;4.00;100.00;96631.47;5012711;28;20187;-68
2022/11/25 00:24:05;;;;;;;11.87;6.97;;;;;;;3.98;100.00;96627.44;5014629;28;20183;-67
2022/11/25 00:26:32;;;;;;;10.10;7.13;;;;;;;3.87;100.00;96630.56;4998307;28;20186;-67
2022/11/25 00:29:00;;;;;;;11.27;6.60;;;;;;;3.91;100.00;96627.41;5016342;28;20175;-68
2022/11/25 00:31:28;;;;;;;10.43;6.20;;;;;;;3.96;100.00;96637.19;5016286;28;20631;-67
2022/11/25 00:33:54;;;;;;;7.83;6.20;;;;;;;3.93;100.00;96627.22;5015051;28;20214;-68
2022/11/25 00:36:24;;;;;;;10.57;6.77;;;;;;;3.80;100.00;96633.09;5014700;28;20690;-67
2022/11/25 00:38:54;;;;;;;11.10;6.80;;;;;;;3.90;100.00;96630.19;5015621;28;20184;-67
2022/11/25 00:46:58;;;;;;;9.07;6.77;;;;;;;3.86;100.00;96634.13;5015855;28;20191;-67
2022/11/25 00:49:24;;;;;;;10.50;6.43;;;;;;;3.84;100.00;96626.56;5015694;28;20187;-68
2022/11/25 00:51:50;;;;;;;12.73;7.37;;;;;;;3.88;100.00;96632.97;5015660;28;20187;-67
2022/11/25 00:54:15;;;;;;;14.20;7.20;;;;;;;3.91;100.00;96632.59;5015420;28;20245;-67
2022/11/25 00:56:41;;;;;;;14.70;7.10;;;;;;;3.99;100.00;96639.44;5015612;28;20209;-67
2022/11/25 00:59:07;;;;;;;13.83;6.90;;;;;;;4.01;100.00;96630.47;5015869;28;20195;-68
2022/11/25 01:01:32;;;;;;;9.43;6.43;;;;;;;4.12;100.00;96637.72;5015568;28;20195;-67
2022/11/25 01:03:58;;;;;;;10.63;6.23;;;;;;;4.15;100.00;96632.16;5015604;28;20649;-68
2022/11/25 01:06:26;;;;;;;7.77;6.43;;;;;;;4.17;100.00;96639.75;5015659;28;20219;-68
2022/11/25 01:08:52;;;;;;;10.00;6.80;;;;;;;4.22;100.00;96642.59;5015899;28;20640;-68
2022/11/25 01:11:23;;;;;;;13.70;6.60;;;;;;;4.24;100.00;96638.00;5015588;28;20183;-67
2022/11/25 01:13:49;;;;;;;10.97;6.73;;;;;;;4.20;100.00;96647.16;5015195;28;20199;-68
2022/11/25 01:16:17;;;;;;;12.00;8.00;;;;;;;4.17;100.00;96655.31;5015054;28;20183;-68
2022/11/25 01:18:43;;;;;;;13.30;8.07;;;;;;;4.15;100.00;96646.91;5015272;28;20233;-68
2022/11/25 01:21:17;;;;;;;11.10;7.60;;;;;;;4.12;100.00;96645.50;5014992;28;20206;-68
2022/11/25 01:23:47;;;;;;;12.93;7.70;;;;;;;4.10;100.00;96651.88;5015063;28;20655;-67
2022/11/25 01:26:23;;;;;;;9.43;7.33;;;;;;;4.13;100.00;96644.50;5015351;28;20234;-67
2022/11/25 01:28:58;;;;;;;10.17;7.40;;;;;;;4.07;100.00;96645.25;5015128;28;20179;-67
2022/11/25 01:31:25;;;;;;;10.33;8.20;;;;;;;4.06;100.00;96637.69;5014825;28;20175;-68
2022/11/25 01:33:54;;;;;;;11.90;7.83;;;;;;;3.94;100.00;96637.41;4996494;28;20286;-68
2022/11/25 01:36:20;;;;;;;10.70;8.30;;;;;;;3.96;100.00;96637.19;5001843;28;20254;-67
2022/11/25 01:38:55;;;;;;;12.23;8.13;;;;;;;4.07;100.00;96632.28;5014739;28;20535;-68
2022/11/25 01:41:23;;;;;;;13.53;7.83;;;;;;;4.07;100.00;96632.28;4997104;28;20171;-68
2022/11/25 01:44:16;;;;;;;12.27;8.40;;;;;;;4.07;100.00;96624.50;5014368;28;20191;-68
2022/11/25 01:46:51;;;;;;;11.10;8.20;;;;;;;4.04;100.00;96624.09;4997246;28;20191;-68
2022/11/25 01:49:57;;;;;;;12.77;8.87;;;;;;;4.12;100.00;96627.34;5014619;28;20178;-68
2022/11/25 01:52:31;;;;;;;15.90;9.67;;;;;;;4.03;100.00;96628.50;4992561;28;20257;-68
2022/11/25 01:55:13;;;;;;;10.90;9.67;;;;;;;4.00;100.00;96633.25;5014221;28;20194;-68
2022/11/25 01:57:50;;;;;;;14.27;9.50;;;;;;;3.93;100.00;96630.63;5015011;28;20526;-68
2022/11/25 02:00:21;;;;;;;16.47;9.30;;;;;;;3.90;100.00;96643.16;5014864;28;20206;-68
2022/11/25 02:02:48;;;;;;;13.23;9.53;;;;;;;3.84;100.00;96636.94;4997095;28;20191;-68
2022/11/25 02:05:16;;;;;;;10.07;9.07;;;;;;;3.75;100.00;96638.84;5014252;28;20183;-68
2022/11/25 02:07:45;;;;;;;15.20;9.47;;;;;;;3.80;100.00;96638.28;4996865;28;20184;-68
2022/11/25 02:10:15;;;;;;;16.97;9.73;;;;;;;3.63;100.00;96631.75;4996458;28;20183;-68
2022/11/25 02:12:48;;;;;;;14.53;8.83;;;;;;;3.49;100.00;96632.66;5014338;28;20286;-67
2022/11/25 02:15:15;;;;;;;9.77;8.67;;;;;;;3.53;100.00;96632.09;5000189;28;20195;-68
2022/11/25 02:17:43;;;;;;;13.93;9.73;;;;;;;3.43;100.00;96635.97;5014370;28;20191;-68
2022/11/25 02:20:13;;;;;;;15.27;8.90;;;;;;;3.35;100.00;96637.69;5014071;28;20172;-68
2022/11/25 02:22:51;;;;;;;12.53;9.03;;;;;;;3.38;100.00;96631.34;5013402;28;20203;-68
2022/11/25 02:25:22;;;;;;;12.30;9.37;;;;;;;3.41;100.00;96635.34;5014394;28;20186;-68
2022/11/25 02:27:54;;;;;;;11.50;9.60;;;;;;;3.39;100.00;96634.75;5014023;28;20175;-68
2022/11/25 02:30:19;;;;;;;12.77;9.27;;;;;;;3.45;100.00;96628.84;5014069;28;20180;-68
2022/11/25 02:32:46;;;;;;;11.17;8.93;;;;;;;3.35;100.00;96629.91;5013977;28;20261;-68
2022/11/25 02:35:28;;;;;;;10.93;8.30;;;;;;;3.33;100.00;96628.53;5013191;28;20207;-68
2022/11/25 02:38:00;;;;;;;9.33;8.40;;;;;;;3.25;100.00;96626.03;5012265;28;20235;-68
2022/11/25 02:40:27;;;;;;;14.60;8.80;;;;;;;3.37;100.00;96621.16;5013931;28;20191;-67
2022/11/25 02:43:05;;;;;;;11.20;8.33;;;;;;;3.42;100.00;96611.84;5013312;28;20218;-68
2022/11/25 02:45:40;;;;;;;11.33;8.23;;;;;;;3.56;100.00;96613.59;5014154;28;20241;-68
2022/11/25 02:48:05;;;;;;;16.97;8.77;;;;;;;3.59;100.00;96615.00;5011955;28;20338;-68
2022/11/25 02:50:34;;;;;;;12.17;9.53;;;;;;;3.63;100.00;96613.63;5013103;28;20266;-68
2022/11/25 02:52:59;;;;;;;12.57;8.73;;;;;;;3.63;100.00;96613.63;5013150;28;20199;-68
2022/11/25 02:55:24;;;;;;;12.40;7.87;;;;;;;3.65;100.00;96616.84;5013602;28;20214;-68
2022/11/25 02:57:50;;;;;;;13.90;8.60;;;;;;;3.73;100.00;96614.13;5013411;28;20210;-68
2022/11/25 03:00:16;;;;;;;8.67;7.80;;;;;;;3.82;100.00;96610.41;5013064;28;20230;-68
2022/11/25 03:02:54;;;;;;;9.50;7.13;;;;;;;3.85;100.00;96615.19;5013660;28;20225;-67
2022/11/25 03:05:29;;;;;;;9.73;7.60;;;;;;;3.93;100.00;96609.06;5012907;28;20230;-67
2022/11/25 03:07:54;;;;;;;13.53;6.83;;;;;;;4.05;100.00;96613.56;5013361;28;20191;-68
2022/11/25 03:10:20;;;;;;;8.83;7.33;;;;;;;4.03;100.00;96612.13;5012883;28;20187;-68
2022/11/25 03:12:54;;;;;;;7.77;6.97;;;;;;;3.87;100.00;96615.00;5013250;28;20195;-68
2022/11/25 03:15:20;;;;;;;13.70;7.67;;;;;;;3.82;100.00;96610.41;5003598;28;20195;-68
2022/11/25 03:17:46;;;;;;;9.03;7.10;;;;;;;3.82;100.00;96612.19;5012991;28;20187;-68
2022/11/25 03:20:12;;;;;;;11.13;8.70;;;;;;;3.77;100.00;96610.16;4995108;28;20207;-68
2022/11/25 03:22:38;;;;;;;11.53;8.63;;;;;;;3.70;100.00;96606.72;4995211;28;20183;-68
2022/11/25 03:25:03;;;;;;;10.00;8.07;;;;;;;3.69;100.00;96607.69;5013256;28;20184;-68
2022/11/25 03:27:29;;;;;;;11.20;8.20;;;;;;;3.68;100.00;96614.66;5013256;28;20202;-68
2022/11/25 03:29:57;;;;;;;10.50;8.23;;;;;;;3.70;100.00;96610.09;4995180;28;20647;-68
2022/11/25 03:32:25;;;;;;;12.77;7.67;;;;;;;3.72;100.00;96612.50;5012863;28;20753;-68
2022/11/25 03:34:54;;;;;;;10.13;8.03;;;;;;;3.66;100.00;96602.91;5012321;28;20198;-68
2022/11/25 03:37:19;;;;;;;10.67;8.00;;;;;;;3.71;100.00;96606.53;5011524;28;20308;-68
2022/11/25 03:39:45;;;;;;;10.30;8.33;;;;;;;3.67;100.00;96605.31;5013153;28;20183;-67
2022/11/25 03:42:13;;;;;;;8.70;7.80;;;;;;;3.70;100.00;96604.13;5013105;28;20659;-70
2022/11/25 03:44:47;;;;;;;13.50;9.67;;;;;;;3.78;100.00;96604.00;5011804;28;20191;-68
2022/11/25 03:47:22;;;;;;;10.43;8.33;;;;;;;3.53;100.00;96603.59;5012698;28;20195;-68
2022/11/25 03:49:47;;;;;;;11.07;9.57;;;;;;;3.44;100.00;96614.28;5012382;28;20673;-67
2022/11/25 03:52:13;;;;;;;13.93;9.33;;;;;;;3.31;100.00;96610.56;5012579;28;20211;-68
2022/11/25 03:54:38;;;;;;;13.37;9.07;;;;;;;3.11;100.00;96607.00;5012888;28;20187;-68
2022/11/25 03:57:04;;;;;;;11.80;9.60;;;;;;;3.06;100.00;96601.56;5013165;28;20182;-68
2022/11/25 03:59:29;;;;;;;11.60;9.40;;;;;;;2.77;100.00;96609.41;5018544;28;20186;-68
2022/11/25 04:01:54;;;;;;;10.93;9.80;;;;;;;2.77;100.00;96602.47;5019322;28;20179;-68
2022/11/25 04:04:20;;;;;;;13.77;10.27;;;;;;;2.63;100.00;96608.44;5019326;28;20183;-68
2022/11/25 04:06:45;;;;;;;13.37;9.67;;;;;;;2.62;100.00;96611.22;5019169;28;20214;-68
2022/11/25 04:09:10;;;;;;;13.70;10.27;;;;;;;2.59;100.00;96604.63;5019516;28;20183;-69
2022/11/25 04:14:21;;;;;;;12.77;10.53;;;;;;;2.52;100.00;96601.16;5010807;28;20190;-68
2022/11/25 04:16:46;;;;;;;13.47;10.70;;;;;;;2.54;100.00;96612.13;5018860;28;20187;-68
2022/11/25 04:19:12;;;;;;;13.80;10.60;;;;;;;2.69;100.00;96596.56;5018732;28;20187;-68
2022/11/25 04:21:37;;;;;;;15.73;11.00;;;;;;;2.57;100.00;96611.75;5019217;28;20218;-68
2022/11/25 04:24:02;;;;;;;12.60;11.20;;;;;;;2.56;100.00;96599.81;5019130;28;20632;-68
2022/11/25 04:26:28;;;;;;;14.03;10.60;;;;;;;2.57;100.00;96601.41;5017982;28;20182;-68
2022/11/25 04:28:53;;;;;;;13.57;12.13;;;;;;;2.62;100.00;96593.13;5018621;28;20188;-68
2022/11/25 04:31:19;;;;;;;15.00;13.50;;;;;;;2.61;100.00;96602.66;5018920;28;20190;-68
2022/11/25 04:33:44;;;;;;;16.90;13.90;;;;;;;2.66;100.00;96594.34;5018789;28;20570;-68
2022/11/25 04:36:09;;;;;;;17.50;13.93;;;;;;;2.69;100.00;96593.97;5018420;28;20203;-68
2022/11/25 04:38:35;;;;;;;16.47;13.23;;;;;;;2.66;100.00;96589.19;5000581;28;20243;-68
2022/11/25 04:41:00;;;;;;;17.80;12.80;;;;;;;2.76;100.00;96597.44;5018783;28;20222;-68
2022/11/25 04:43:26;;;;;;;20.97;13.60;;;;;;;2.66;100.00;96589.19;5018125;28;20187;-68
2022/11/25 04:45:52;;;;;;;18.30;12.60;;;;;;;2.74;100.00;96591.66;5018628;28;20179;-68
2022/11/25 04:48:17;;;;;;;21.00;13.20;;;;;;;2.78;100.00;96598.09;5019034;28;20639;-68
2022/11/25 04:50:44;;;;;;;17.37;12.77;;;;;;;2.82;100.00;96599.31;5018998;28;20223;-68
2022/11/25 04:53:09;;;;;;;20.47;12.93;;;;;;;2.76;100.00;96603.44;5017997;28;20230;-69
2022/11/25 04:55:34;;;;;;;15.30;12.33;;;;;;;2.71;100.00;96603.19;5019006;28;20697;-68
2022/11/25 04:58:00;;;;;;;18.23;11.87;;;;;;;2.68;100.00;96600.94;5018804;28;20249;-68
2022/11/25 05:00:25;;;;;;;15.27;12.10;;;;;;;2.61;100.00;96605.25;5018465;28;20188;-69
2022/11/25 05:02:50;;;;;;;18.63;11.60;;;;;;;2.61;100.00;96609.63;5018408;28;20190;-69
2022/11/25 05:05:16;;;;;;;14.73;12.30;;;;;;;2.72;100.00;96598.81;5018152;28;20187;-68
2022/11/25 05:07:41;;;;;;;16.90;12.83;;;;;;;2.63;100.00;96589.53;5018491;28;20654;-68
2022/11/25 05:10:07;;;;;;;15.80;11.30;;;;;;;2.62;100.00;96595.72;5015714;28;20183;-68
2022/11/25 05:12:34;;;;;;;14.73;11.33;;;;;;;2.66;100.00;96618.44;4998196;28;20203;-68
2022/11/25 05:14:59;;;;;;;15.27;10.97;;;;;;;2.61;100.00;96610.44;5014801;28;20640;-68
2022/11/25 05:17:29;;;;;;;18.43;10.80;;;;;;;2.66;100.00;96615.84;4998573;28;20250;-68
2022/11/25 05:19:55;;;;;;;11.37;10.17;;;;;;;2.65;100.00;96622.00;5016702;28;20282;-68
2022/11/25 05:22:31;;;;;;;12.47;10.23;;;;;;;2.71;100.00;96620.47;5015882;28;20296;-68
2022/11/25 05:24:57;;;;;;;16.07;10.10;;;;;;;2.63;100.00;96605.84;5014903;28;20669;-68
2022/11/25 05:27:23;;;;;;;14.67;10.27;;;;;;;2.66;100.00;96607.28;5015376;28;20191;-68
2022/11/25 05:29:49;;;;;;;15.93;10.80;;;;;;;2.73;100.00;96603.78;5015145;28;20184;-68
2022/11/25 05:32:15;;;;;;;11.63;10.37;;;;;;;2.62;100.00;96608.66;5014968;28;20206;-68
2022/11/25 05:34:41;;;;;;;18.30;10.97;;;;;;;2.64;100.00;96602.28;5014909;28;20591;-68
2022/11/25 05:37:08;;;;;;;13.67;10.43;;;;;;;2.56;100.00;96606.78;5013246;28;20692;-70
2022/11/25 05:39:33;;;;;;;15.17;10.83;;;;;;;2.61;100.00;96594.91;5014988;28;20187;-68
2022/11/25 05:41:59;;;;;;;13.17;10.43;;;;;;;2.51;100.00;96607.28;5015311;28;20190;-68
2022/11/25 05:44:24;;;;;;;15.53;10.87;;;;;;;2.51;100.00;96602.94;5013989;28;20620;-68
2022/11/25 05:46:50;;;;;;;13.33;10.67;;;;;;;2.44;100.00;96615.00;5015346;28;20229;-68
2022/11/25 05:49:16;;;;;;;15.10;10.63;;;;;;;2.55;100.00;96623.28;5014721;28;20181;-68
2022/11/25 05:51:42;;;;;;;15.53;11.30;;;;;;;2.53;100.00;96614.88;5014989;28;20214;-68
2022/11/25 05:54:07;;;;;;;14.17;10.83;;;;;;;2.48;100.00;96618.00;5014626;28;20619;-68
2022/11/25 05:56:32;;;;;;;12.97;10.47;;;;;;;2.49;100.00;96622.22;5014842;28;20207;-68
2022/11/25 05:58:59;;;;;;;12.47;10.63;;;;;;;2.40;100.00;96623.28;5014318;28;20175;-68
2022/11/25 06:01:24;;;;;;;14.90;10.80;;;;;;;2.50;100.00;96626.41;5014285;28;20179;-69
2022/11/25 06:03:49;;;;;;;13.33;10.10;;;;;;;2.53;100.00;96623.44;5013490;28;20183;-69
2022/11/25 06:06:15;;;;;;;12.30;10.60;;;;;;;2.61;100.00;96635.50;4996501;28;20187;-69
2022/11/25 06:08:40;;;;;;;14.57;10.70;;;;;;;2.74;100.00;96631.25;5014213;28;20553;-68
2022/11/25 06:11:11;;;;;;;11.97;10.20;;;;;;;2.76;100.00;96637.06;5014525;28;20202;-68
2022/11/25 06:13:38;;;;;;;14.70;10.60;;;;;;;2.79;100.00;96641.88;5013680;28;20302;-68
2022/11/25 06:16:14;;;;;;;13.13;10.27;;;;;;;2.85;100.00;96648.91;5014308;28;20521;-68
2022/11/25 06:18:39;;;;;;;16.50;10.87;;;;;;;2.79;100.00;96646.25;5014267;28;20179;-69
2022/11/25 06:21:06;;;;;;;13.77;11.20;;;;;;;2.73;100.00;96655.53;5013931;28;20290;-69
2022/11/25 06:23:32;;;;;;;17.30;11.63;;;;;;;2.82;100.00;96649.28;4998259;28;20179;-68
2022/11/25 06:26:09;;;;;;;12.73;10.87;;;;;;;2.80;100.00;96650.44;5013573;28;20274;-68
2022/11/25 06:28:34;;;;;;;16.90;10.50;;;;;;;2.88;100.00;96637.41;4996390;28;20221;-68
2022/11/25 06:31:14;;;;;;;12.57;9.87;;;;;;;2.90;100.00;96646.56;5013880;28;20270;-67
2022/11/25 06:33:40;;;;;;;14.93;9.50;;;;;;;2.93;100.00;96653.19;5013710;28;20207;-67
2022/11/25 06:36:08;;;;;;;13.10;10.07;;;;;;;3.06;100.00;96655.94;5012388;28;20250;-68
2022/11/25 06:38:34;;;;;;;12.57;10.73;;;;;;;3.11;100.00;96648.44;5013664;28;20722;-68
2022/11/25 06:41:01;;;;;;;14.20;11.33;;;;;;;3.12;100.00;96657.00;5014105;28;20191;-67
2022/11/25 06:43:26;;;;;;;12.83;9.93;;;;;;;3.14;100.00;96658.41;5013628;28;20199;-68
2022/11/25 06:45:52;;;;;;;11.37;9.37;;;;;;;3.21;100.00;96661.06;5013510;28;20206;-66
2022/11/25 06:48:17;;;;;;;11.33;9.70;;;;;;;3.31;100.00;96656.38;5013925;28;20648;-65
2022/11/25 06:50:42;;;;;;;11.43;9.50;;;;;;;3.28;100.00;96660.16;5014214;28;20186;-66
2022/11/25 06:53:08;;;;;;;16.40;10.87;;;;;;;3.23;100.00;96664.28;5013573;28;20659;-66
2022/11/25 06:55:33;;;;;;;12.67;10.93;;;;;;;3.25;100.00;96668.28;4995905;28;20202;-66
2022/11/25 06:57:58;;;;;;;12.37;10.50;;;;;;;3.22;100.00;96666.06;5014217;28;20191;-67
2022/11/25 07:00:24;;;;;;;12.97;11.10;;;;;;;3.35;100.00;96673.16;5013718;28;20195;-66
2022/11/25 07:02:49;;;;;;;13.47;10.47;;;;;;;3.35;100.00;96676.53;5013409;28;20229;-68
2022/11/25 07:05:14;;;;;;;11.77;10.47;;;;;;;3.45;100.00;96676.25;5013594;28;20187;-68
2022/11/25 07:07:40;;;;;;;12.13;10.77;;;;;;;3.56;100.00;96680.16;5013857;28;20180;-66
2022/11/25 07:10:06;;;;;;;11.80;10.50;;;;;;;3.50;100.00;96680.88;5013843;28;20636;-67
2022/11/25 07:12:32;;;;;;;13.40;9.30;;;;;;;3.60;100.00;96683.97;5013008;28;20207;-65
2022/11/25 07:14:57;;;;;;;12.20;9.00;;;;;;;3.76;100.00;96688.91;5013240;28;20191;-65
2022/11/25 07:17:22;;;;;;;10.27;9.03;;;;;;;3.81;100.00;96688.34;5013809;28;20198;-64
2022/11/25 07:19:47;;;;;;;8.20;7.40;;;;;;;3.95;100.00;96685.69;5013033;28;20187;-65
2022/11/25 07:22:13;;;;;;;12.00;7.63;;;;;;;4.07;100.00;96699.72;4995471;28;20227;-64
2022/11/25 07:24:38;;;;;;;10.83;7.50;;;;;;;4.31;100.00;96695.91;5012741;28;20188;-65
2022/11/25 07:27:05;;;;;;;7.80;7.00;;;;;;;4.37;100.00;96695.16;4994431;28;20187;-65
2022/11/25 07:29:31;;;;;;;6.63;5.93;;;;;;;4.58;100.00;96704.66;5012201;28;20171;-65
2022/11/25 07:31:56;;;;;;;8.67;6.23;;;;;;;4.62;100.00;96700.72;5011773;28;20201;-65
2022/11/25 07:34:22;;;;;;;8.77;7.17;;;;;;;4.75;100.00;96692.97;5012044;28;20640;-66
2022/11/25 07:36:48;;;;;;;6.30;5.77;;;;;;;4.77;100.00;96691.00;4993390;28;20183;-65
2022/11/25 07:39:17;;;;;;;8.83;6.00;;;;;;;4.87;100.00;96693.22;4994872;28;20225;-66
2022/11/25 07:41:43;;;;;;;8.43;6.20;;;;;;;4.85;100.00;96698.63;5012959;28;20187;-65
2022/11/25 07:44:11;;;;;;;8.43;7.70;;;;;;;4.87;100.00;96704.44;5008367;28;20199;-65
2022/11/25 07:46:42;;;;;;;10.23;8.23;;;;;;;4.94;100.00;96707.06;5009088;28;20199;-65
2022/11/25 07:49:14;;;;;;;7.43;6.67;;;;;;;4.93;100.00;96710.66;4996800;28;20194;-66
2022/11/25 07:51:48;;;;;;;7.93;6.97;;;;;;;4.87;100.00;96712.22;4994680;28;20200;-64
2022/11/25 07:54:13;;;;;;;7.03;5.87;;;;;;;4.83;100.00;96721.41;5012143;28;20203;-66
2022/11/25 07:56:40;;;;;;;9.00;7.90;;;;;;;4.89;100.00;96728.41;5011926;28;20183;-64
2022/11/25 07:59:10;;;;;;;11.80;9.97;;;;;;;4.84;100.00;96724.78;5011400;28;20245;-63
2022/11/25 08:01:35;;;;;;;11.40;10.30;;;;;;;4.93;100.00;96729.63;5002995;28;20171;-63
2022/11/25 08:04:01;;;;;;;8.13;7.43;;;;;;;4.82;100.00;96734.56;5012497;28;20187;-60
2022/11/25 08:06:28;;;;;;;7.27;6.57;;;;;;;4.68;100.00;96735.50;4994148;28;20249;-60
2022/11/25 08:08:55;;;;;;;8.27;7.20;;;;;;;4.81;100.00;96741.53;5012018;28;20274;-61
2022/11/25 08:11:29;;;;;;;8.70;6.90;;;;;;;4.76;100.00;96736.13;5012460;28;20655;-61
2022/11/25 08:13:55;;;;;;;9.47;7.13;;;;;;;4.84;100.00;96740.38;5011649;28;20218;-60
2022/11/25 08:16:22;;;;;;;8.53;7.53;;;;;;;4.82;100.00;96740.56;5012500;28;20194;-60
2022/11/25 08:18:48;;;;;;;8.03;6.90;;;;;;;4.74;100.00;96742.50;5012387;28;20218;-61
2022/11/25 08:21:15;;;;;;;7.07;6.43;;;;;;;4.80;100.00;96747.72;5012490;28;20183;-61
2022/11/25 08:23:47;;;;;;;7.50;6.70;;;;;;;4.73;100.00;96740.91;5012291;28;20214;-62
2022/11/25 08:26:16;;;;;;;11.00;6.93;;;;;;;4.75;100.00;96738.91;5012563;28;20184;-61
2022/11/25 08:28:42;;;;;;;8.00;6.70;;;;;;;4.93;100.00;96737.41;5012409;28;20596;-61
2022/11/25 08:31:12;;;;;;;9.20;6.07;;;;;;;4.96;100.00;96731.81;5011457;28;20199;-61
2022/11/25 08:33:38;;;;;;;8.80;7.50;;;;;;;5.10;100.00;96735.31;5012097;28;20199;-63
2022/11/25 08:36:04;;;;;;;8.10;7.40;;;;;;;5.16;100.00;96734.53;5011221;28;20309;-62
2022/11/25 08:38:30;;;;;;;8.43;7.80;;;;;;;5.24;100.00;96744.75;4993913;28;20230;-61
2022/11/25 08:40:56;;;;;;;9.03;7.67;;;;;;;5.34;100.00;96744.41;5011887;28;20179;-61
2022/11/25 08:43:22;;;;;;;7.57;6.80;;;;;;;5.19;100.00;96741.94;5011454;28;20191;-61
2022/11/25 08:45:48;;;;;;;10.20;6.33;;;;;;;5.23;100.00;96737.16;5014264;28;20266;-61
2022/11/25 08:48:15;;;;;;;7.87;6.17;;;;;;;5.34;100.00;96745.19;5015600;28;20193;-61
2022/11/25 08:50:45;;;;;;;7.00;6.30;;;;;;;5.50;100.00;96751.84;5015523;28;20179;-60
2022/11/25 08:53:11;;;;;;;6.93;6.23;;;;;;;5.37;100.00;96750.00;5015049;28;20191;-60
2022/11/25 08:55:37;;;;;;;7.23;6.57;;;;;;;5.44;100.00;96743.03;5015246;28;20222;-61
2022/11/25 08:58:03;;;;;;;9.60;6.57;;;;;;;5.44;100.00;96742.22;5015658;28;20171;-61
2022/11/25 09:00:28;;;;;;;7.43;6.70;;;;;;;5.55;100.00;96740.88;4997626;28;20706;-61
2022/11/25 09:02:54;;;;;;;6.17;5.63;;;;;;;5.55;100.00;96752.06;5015277;28;20187;-62
2022/11/25 09:05:19;;;;;;;7.17;6.43;;;;;;;5.70;100.00;96739.69;5014872;28;20180;-61
2022/11/25 09:07:44;;;;;;;8.80;7.80;;;;;;;5.62;100.00;96749.47;5015470;28;20198;-60
2022/11/25 09:10:14;;;;;;;8.87;7.63;;;;;;;5.70;100.00;96744.09;5015292;28;20238;-60
2022/11/25 09:12:39;;;;;;;8.53;7.63;;;;;;;5.85;100.00;96749.94;5015035;28;20234;-61
2022/11/25 09:15:05;;;;;;;9.27;7.07;;;;;;;5.97;100.00;96752.75;5014627;28;20191;-61
2022/11/25 09:17:30;;;;;;;10.20;7.43;;;;;;;5.99;100.00;96758.59;5015409;28;20180;-61
2022/11/25 09:19:56;;;;;;;13.30;11.90;;;;;;;6.10;100.00;96758.81;4997169;28;20202;-62
2022/11/25 09:22:21;;;;;;;9.97;9.00;;;;;;;5.99;100.00;96767.19;4989688;28;20275;-60
2022/11/25 09:24:47;;;;;;;11.70;8.33;;;;;;;6.24;100.00;96765.59;5015073;28;20195;-61
2022/11/25 09:27:12;;;;;;;10.27;7.50;;;;;;;6.20;100.00;96766.22;5014493;28;20191;-62
2022/11/25 09:29:37;;;;;;;8.90;7.53;;;;;;;6.36;100.00;96770.22;5014043;28;20190;-61
2022/11/25 09:32:03;;;;;;;9.43;8.63;;;;;;;6.48;100.00;96766.00;5014963;28;20197;-62
2022/11/25 09:34:28;;;;;;;7.90;7.20;;;;;;;6.59;100.00;96781.03;4996974;28;20187;-62
2022/11/25 09:36:53;;;;;;;8.77;6.60;;;;;;;6.80;100.00;96778.19;5012278;28;20190;-63
2022/11/25 09:39:19;;;;;;;6.50;5.80;;;;;;;6.72;100.00;96777.63;5014619;28;20178;-61
2022/11/25 09:47:59;;;;;;;7.50;6.80;;;;;;;7.00;100.00;96786.78;5014639;28;20258;-62
2022/11/25 09:50:46;;;;;;;7.77;5.70;;;;;;;7.23;100.00;96785.53;4998927;28;20183;-62
2022/11/25 09:53:26;;;;;;;11.23;5.83;;;;;;;7.28;100.00;96778.69;5014740;28;20745;-61
2022/11/25 09:55:57;;;;;;;7.87;5.33;;;;;;;7.47;100.00;96783.03;5014261;28;20210;-62
2022/11/25 09:58:29;;;;;;;6.80;6.07;;;;;;;7.12;100.00;96778.34;4996082;28;20708;-62
2022/11/25 10:00:54;;;;;;;6.63;5.73;;;;;;;7.32;100.00;96779.06;5013979;28;20179;-61
2022/11/25 10:03:38;;;;;;;8.00;6.30;;;;;;;7.26;100.00;96782.50;5014242;28;20187;-62
2022/11/25 10:06:09;;;;;;;6.93;6.00;;;;;;;7.35;100.00;96773.47;5014076;28;20183;-65
2022/11/25 10:08:38;;;;;;;7.20;6.63;;;;;;;7.34;100.00;96777.88;5014152;28;20195;-63
2022/11/25 10:11:31;;;;;;;7.57;7.00;;;;;;;7.42;100.00;96774.22;5013878;28;20194;-63
2022/11/25 10:13:59;;;;;;;9.80;6.93;;;;;;;7.37;100.00;96781.88;5014001;28;20223;-63
2022/11/25 10:16:30;;;;;;;7.83;7.07;;;;;;;7.46;100.00;96781.44;5012850;28;20187;-64
2022/11/25 10:19:21;;;;;;;8.10;7.40;;;;;;;7.73;100.00;96786.53;5013941;28;20187;-65
2022/11/25 10:21:46;;;;;;;7.17;6.47;;;;;;;7.58;100.00;96792.00;4995415;28;20200;-65
2022/11/25 10:24:14;;;;;;;8.97;7.17;;;;;;;7.59;100.00;96792.81;5013169;28;20187;-64
2022/11/25 10:26:42;;;;;;;8.20;7.43;;;;;;;7.79;100.00;96790.94;4995961;28;20218;-64
2022/11/25 10:29:37;;;;;;;9.57;7.17;;;;;;;7.70;100.00;96795.56;4996376;28;20192;-64
2022/11/25 10:32:24;;;;;;;8.33;6.40;;;;;;;8.09;100.00;96783.31;4979214;28;20207;-63
2022/11/25 10:34:58;;;;;;;11.30;10.40;;;;;;;8.17;100.00;96786.50;4999892;28;20179;-64
2022/11/25 10:37:32;;;;;;;9.40;7.10;;;;;;;8.31;100.00;96790.63;5012489;28;20899;-65
2022/11/25 10:39:57;;;;;;;9.33;7.07;;;;;;;8.39;100.00;96786.97;5013924;28;20191;-63
2022/11/25 10:42:26;;;;;;;7.60;6.90;;;;;;;8.54;100.00;96784.81;5013689;28;20184;-64
2022/11/25 10:44:53;;;;;;;9.20;7.00;;;;;;;8.72;100.00;96787.50;5012792;28;20191;-64
2022/11/25 10:47:32;;;;;;;13.73;12.63;;;;;;;8.71;100.00;96793.72;4996016;28;20195;-64
2022/11/25 10:50:21;;;;;;;13.30;11.80;;;;;;;8.85;100.00;96785.78;5013759;28;20546;-64
2022/11/25 10:52:54;;;;;;;8.67;6.30;;;;;;;8.96;100.00;96791.09;5013278;28;20203;-64
2022/11/25 10:55:25;;;;;;;6.03;5.23;;;;;;;8.94;100.00;96790.50;5013740;28;20186;-64
2022/11/25 10:57:51;;;;;;;7.93;6.10;;;;;;;8.86;100.00;96782.94;5013629;28;20187;-64
2022/11/25 11:00:29;;;;;;;8.17;6.20;;;;;;;8.78;100.00;96791.06;5012993;28;20666;-65
2022/11/25 11:02:56;;;;;;;8.13;5.70;;;;;;;8.57;100.00;96794.06;5013149;28;20174;-64
2022/11/25 11:05:28;;;;;;;21.33;14.73;;;;;;;8.78;100.00;96793.69;5013719;28;20207;-64
2022/11/25 11:08:10;;;;;;;5.97;5.37;;;;;;;8.91;100.00;96795.38;5012141;28;20647;-65
2022/11/25 11:10:36;;;;;;;5.87;4.87;;;;;;;8.88;100.00;96801.81;4993845;28;20249;-64
2022/11/25 11:13:19;;;;;;;7.87;4.63;;;;;;;8.89;100.00;96800.81;4998428;28;20656;-65
2022/11/25 11:15:46;;;;;;;6.63;5.27;;;;;;;8.77;100.00;96808.56;5012793;28;20620;-65
2022/11/25 11:18:37;;;;;;;5.57;5.07;;;;;;;8.75;100.00;96807.97;5012673;28;20215;-66
2022/11/25 11:21:06;;;;;;;18.53;13.90;;;;;;;8.78;100.00;96809.34;4999040;28;20187;-69
2022/11/25 11:23:47;;;;;;;7.17;6.43;;;;;;;8.92;100.00;96804.78;5012974;28;20198;-69
2022/11/25 11:26:25;;;;;;;5.47;4.87;;;;;;;8.73;100.00;96807.38;4995711;28;20175;-68
2022/11/25 11:29:02;;;;;;;5.67;5.10;;;;;;;8.60;100.00;96811.91;5012871;28;20176;-67
2022/11/25 11:31:38;;;;;;;9.87;4.87;;;;;;;8.52;100.00;96815.59;5012450;28;20187;-69
2022/11/25 11:34:23;;;;;;;5.93;4.63;;;;;;;8.48;100.00;96811.78;5012666;28;20527;-70
2022/11/25 11:37:23;;;;;;;8.83;4.70;;;;;;;8.47;100.00;96817.25;5011434;28;20669;-69
2022/11/25 11:40:13;;;;;;;6.63;4.93;;;;;;;8.48;100.00;96824.06;5007772;28;20249;-71
2022/11/25 11:42:55;;;;;;;5.30;4.23;;;;;;;8.57;100.00;96826.22;5012906;28;20184;-70
2022/11/25 11:45:23;;;;;;;6.17;4.30;;;;;;;8.39;100.00;96835.78;5007118;28;20179;-71
2022/11/25 11:48:07;;;;;;;5.30;4.03;;;;;;;8.38;100.00;96839.41;5012474;28;20203;-64
2022/11/25 11:51:04;;;;;;;5.40;4.90;;;;;;;8.40;100.00;96851.25;5012834;28;20182;-69